createdAt,value
2022-11-02T00:00:14.866Z,10.64
2022-11-02T00:02:58.079Z,10.57
2022-11-02T00:05:41.342Z,10.67
2022-11-02T00:08:24.380Z,10.73
2022-11-02T00:11:07.456Z,10.62
2022-11-02T00:13:52.068Z,10.68
2022-11-02T00:16:35.077Z,10.63
2022-11-02T00:19:18.408Z,10.61
2022-11-02T00:22:02.670Z,10.62
2022-11-02T00:24:45.697Z,10.68
2022-11-02T00:27:30.082Z,10.63
2022-11-02T00:30:15.192Z,10.58
2022-11-02T00:32:58.232Z,10.63
2022-11-02T00:35:42.769Z,10.55
2022-11-02T00:38:25.854Z,10.47
2022-11-02T00:41:08.825Z,10.27
2022-11-02T00:43:51.772Z,10.11
2022-11-02T00:46:36.222Z,10.07
2022-11-02T00:49:19.193Z,10.10
2022-11-02T00:52:02.221Z,10.14
2022-11-02T00:54:45.236Z,10.17
2022-11-02T00:57:28.235Z,10.15
2022-11-02T01:00:12.740Z,10.11
2022-11-02T01:03:00.430Z,10.14
2022-11-02T01:05:43.436Z,10.09
2022-11-02T01:08:26.450Z,10.04
2022-11-02T01:11:14.186Z,10.02
2022-11-02T01:13:57.195Z,10.00
2022-11-02T01:16:40.620Z,9.91
2022-11-02T01:19:25.405Z,9.86
2022-11-02T01:22:08.392Z,9.62
2022-11-02T01:24:51.376Z,9.56
2022-11-02T01:27:34.421Z,9.56
2022-11-02T01:30:17.587Z,9.53
2022-11-02T01:33:00.582Z,9.44
2022-11-02T01:35:44.986Z,9.30
2022-11-02T01:38:27.921Z,9.25
2022-11-02T01:41:12.385Z,9.31
2022-11-02T01:43:58.879Z,9.30
2022-11-02T01:46:45.893Z,9.27
2022-11-02T01:49:30.508Z,9.33
2022-11-02T01:52:17.047Z,9.41
2022-11-02T01:55:04.254Z,9.42
2022-11-02T01:57:52.720Z,9.45
2022-11-02T02:00:35.799Z,9.39
2022-11-02T02:03:21.413Z,9.38
2022-11-02T02:06:09.042Z,9.40
2022-11-02T02:08:56.405Z,9.45
2022-11-02T02:11:41.522Z,9.53
2022-11-02T02:14:24.880Z,9.56
2022-11-02T02:17:30.153Z,9.53
2022-11-02T02:20:25.191Z,9.52
2022-11-02T02:23:36.515Z,9.49
2022-11-02T02:26:54.794Z,9.46
2022-11-02T02:29:54.103Z,9.41
2022-11-02T02:32:46.238Z,9.38
2022-11-02T02:35:36.724Z,9.31
2022-11-02T02:38:29.640Z,9.29
2022-11-02T02:41:15.665Z,9.31
2022-11-02T02:44:01.835Z,9.32
2022-11-02T02:46:56.128Z,9.24
2022-11-02T02:49:44.083Z,9.16
2022-11-02T02:52:30.056Z,9.03
2022-11-02T02:55:18.586Z,8.99
2022-11-02T02:58:03.816Z,8.94
2022-11-02T03:00:47.355Z,8.77
2022-11-02T03:03:34.687Z,8.68
2022-11-02T03:06:23.022Z,8.56
2022-11-02T03:09:11.083Z,8.50
2022-11-02T03:12:05.164Z,8.45
2022-11-02T03:15:03.423Z,8.37
2022-11-02T03:18:03.525Z,8.46
2022-11-02T03:20:58.950Z,8.45
2022-11-02T03:23:50.527Z,8.40
2022-11-02T03:26:41.975Z,8.35
2022-11-02T03:29:29.092Z,8.31
2022-11-02T03:32:21.517Z,8.21
2022-11-02T03:35:09.577Z,8.01
2022-11-02T03:37:59.620Z,8.05
2022-11-02T03:40:46.500Z,8.05
2022-11-02T03:43:32.137Z,8.05
2022-11-02T03:46:17.580Z,8.10
2022-11-02T03:49:07.596Z,7.98
2022-11-02T03:51:52.730Z,8.01
2022-11-02T03:54:44.809Z,8.02
2022-11-02T03:57:33.883Z,7.94
2022-11-02T04:00:19.373Z,7.94
2022-11-02T04:03:04.344Z,7.99
2022-11-02T04:05:47.447Z,7.97
2022-11-02T04:08:36.275Z,7.91
2022-11-02T04:11:40.381Z,7.93
2022-11-02T04:14:41.552Z,7.95
2022-11-02T04:17:41.991Z,7.97
2022-11-02T04:20:25.071Z,7.90
2022-11-02T04:23:25.177Z,7.75
2022-11-02T04:26:08.159Z,7.85
2022-11-02T04:28:52.561Z,7.84
2022-11-02T04:31:35.602Z,7.76
2022-11-02T04:34:17.576Z,7.67
2022-11-02T04:37:00.620Z,7.68
2022-11-02T04:39:42.560Z,7.82
2022-11-02T04:42:25.571Z,7.77
2022-11-02T04:45:11.012Z,7.80
2022-11-02T04:47:54.203Z,7.83
2022-11-02T04:50:37.826Z,7.94
2022-11-02T04:53:20.866Z,7.89
2022-11-02T04:56:03.965Z,7.98
2022-11-02T04:58:50.129Z,7.97
2022-11-02T05:01:34.648Z,8.03
2022-11-02T05:04:17.673Z,8.02
2022-11-02T05:07:01.866Z,8.17
2022-11-02T05:09:45.022Z,8.16
2022-11-02T05:12:29.284Z,8.32
2022-11-02T05:15:12.733Z,8.42
2022-11-02T05:17:57.221Z,8.50
2022-11-02T05:20:40.320Z,8.52
2022-11-02T05:23:24.661Z,8.66
2022-11-02T05:26:08.620Z,8.73
2022-11-02T05:28:52.755Z,8.87
2022-11-02T05:31:36.003Z,9.01
2022-11-02T05:34:20.418Z,9.10
2022-11-02T05:37:03.411Z,9.14
2022-11-02T05:39:49.476Z,9.38
2022-11-02T05:42:33.711Z,9.45
2022-11-02T05:45:20.629Z,9.59
2022-11-02T05:48:07.903Z,9.62
2022-11-02T05:50:56.549Z,9.62
2022-11-02T05:53:39.569Z,9.61
2022-11-02T05:56:25.154Z,9.79
2022-11-02T05:59:09.145Z,10.19
2022-11-02T06:01:52.178Z,10.42
2022-11-02T06:04:35.211Z,10.62
2022-11-02T06:07:19.689Z,11.05
2022-11-02T06:10:03.197Z,11.80
2022-11-02T06:12:46.333Z,12.25
2022-11-02T06:15:30.172Z,14.05
2022-11-02T06:18:13.228Z,14.65
2022-11-02T06:20:58.488Z,16.62
2022-11-02T06:23:44.277Z,17.70
2022-11-02T06:26:27.294Z,18.10
2022-11-02T06:29:10.366Z,19.91
2022-11-02T06:31:54.245Z,21.66
2022-11-02T06:34:37.236Z,22.11
2022-11-02T06:37:20.262Z,23.87
2022-11-02T06:40:04.845Z,24.83
2022-11-02T06:43:03.388Z,26.33
2022-11-02T06:45:50.846Z,28.30
2022-11-02T06:48:35.642Z,30.33
2022-11-02T06:51:18.870Z,29.81
2022-11-02T06:54:07.445Z,29.53
2022-11-02T06:56:53.001Z,28.23
2022-11-02T06:59:36.036Z,26.12
2022-11-02T07:02:22.022Z,30.09
2022-11-02T07:05:05.605Z,28.80
2022-11-02T07:07:48.569Z,30.91
2022-11-02T07:10:31.951Z,31.82
2022-11-02T07:13:16.376Z,32.34
2022-11-02T07:15:59.467Z,34.95
2022-11-02T07:18:42.729Z,34.87
2022-11-02T07:21:25.751Z,36.19
2022-11-02T07:24:08.940Z,38.54
2022-11-02T07:26:52.281Z,37.01
2022-11-02T07:29:36.641Z,39.57
2022-11-02T07:32:19.641Z,37.06
2022-11-02T07:35:02.738Z,35.96
2022-11-02T07:37:46.275Z,31.42
2022-11-02T07:40:30.812Z,33.05
2022-11-02T07:43:13.888Z,36.05
2022-11-02T07:45:58.354Z,37.61
2022-11-02T07:48:41.342Z,38.93
2022-11-02T07:51:24.437Z,39.49
2022-11-02T07:54:07.657Z,38.11
2022-11-02T07:56:50.709Z,38.06
2022-11-02T07:59:33.715Z,39.49
2022-11-02T08:02:18.204Z,38.22
2022-11-02T08:05:01.251Z,37.86
2022-11-02T08:07:44.263Z,39.06
2022-11-02T08:10:28.090Z,38.61
2022-11-02T08:13:12.424Z,41.40
2022-11-02T08:15:55.920Z,44.00
2022-11-02T08:18:41.095Z,44.35
2022-11-02T08:21:24.085Z,42.28
2022-11-02T08:24:07.917Z,45.42
2022-11-02T08:26:53.960Z,44.22
2022-11-02T08:29:38.059Z,45.42
2022-11-02T08:32:21.150Z,46.76
2022-11-02T08:35:06.290Z,48.03
2022-11-02T08:37:55.004Z,47.05
2022-11-02T08:40:38.357Z,44.04
2022-11-02T08:43:21.390Z,39.96
2022-11-02T08:46:19.915Z,43.54
2022-11-02T08:49:03.122Z,46.25
2022-11-02T08:51:47.683Z,45.88
2022-11-02T08:54:30.805Z,48.12
2022-11-02T08:57:13.778Z,47.37
2022-11-02T08:59:56.825Z,47.10
2022-11-02T09:02:39.843Z,48.52
2022-11-02T09:05:22.919Z,45.95
2022-11-02T09:08:09.113Z,44.27
2022-11-02T09:10:53.277Z,40.16
2022-11-02T09:13:36.346Z,35.82
2022-11-02T09:16:19.532Z,32.84
2022-11-02T09:19:02.606Z,32.20
2022-11-02T09:21:45.630Z,28.78
2022-11-02T09:24:30.051Z,26.02
2022-11-02T09:27:13.037Z,26.20
2022-11-02T09:29:56.096Z,27.46
2022-11-02T09:32:39.740Z,27.74
2022-11-02T09:35:23.103Z,25.60
2022-11-02T09:38:06.211Z,25.41
2022-11-02T09:41:02.022Z,28.21
2022-11-02T09:43:54.863Z,32.89
2022-11-02T09:46:40.743Z,37.77
2022-11-02T09:49:26.193Z,40.32
2022-11-02T09:52:15.035Z,43.13
2022-11-02T09:55:00.192Z,43.38
2022-11-02T09:57:49.135Z,44.84
2022-11-02T10:00:37.057Z,45.57
2022-11-02T10:03:33.772Z,48.93
2022-11-02T10:06:20.633Z,49.76
2022-11-02T10:09:11.870Z,44.99
2022-11-02T10:12:03.132Z,49.07
2022-11-02T10:14:57.001Z,48.91
2022-11-02T10:17:43.318Z,46.84
2022-11-02T10:20:28.916Z,47.66
2022-11-02T10:23:19.195Z,42.72
2022-11-02T10:26:03.564Z,46.40
2022-11-02T10:28:50.392Z,47.18
2022-11-02T10:31:35.611Z,46.57
2022-11-02T10:34:25.720Z,47.94
2022-11-02T10:37:21.875Z,51.58
2022-11-02T10:40:17.485Z,51.49
2022-11-02T10:43:12.523Z,51.13
2022-11-02T10:46:12.001Z,53.87
2022-11-02T10:49:06.878Z,53.09
2022-11-02T10:51:51.086Z,54.34
2022-11-02T10:54:34.910Z,55.52
2022-11-02T10:57:25.533Z,54.00
2022-11-02T11:00:27.290Z,54.25
2022-11-02T11:03:12.092Z,55.23
2022-11-02T11:06:02.210Z,54.96
2022-11-02T11:08:49.836Z,55.59
2022-11-02T11:11:35.116Z,54.34
2022-11-02T11:20:37.750Z,55.68
2022-11-02T11:23:24.168Z,53.26
2022-11-02T11:26:13.206Z,54.15
2022-11-02T11:28:57.594Z,52.12
2022-11-02T11:31:40.942Z,47.89
2022-11-02T11:34:28.308Z,43.49
2022-11-02T11:37:17.140Z,40.33
2022-11-02T11:40:04.680Z,36.56
2022-11-02T11:42:51.125Z,34.39
2022-11-02T11:45:34.542Z,33.46
2022-11-02T11:48:27.669Z,32.07
2022-11-02T11:51:31.101Z,31.03
2022-11-02T11:54:25.109Z,30.14
2022-11-02T11:57:26.052Z,29.75
2022-11-02T12:00:28.556Z,29.20
2022-11-02T12:03:13.433Z,28.66
2022-11-02T12:06:09.827Z,28.16
2022-11-02T12:09:04.063Z,27.79
2022-11-02T12:11:58.620Z,27.50
2022-11-02T12:14:56.478Z,27.04
2022-11-02T12:17:54.078Z,26.78
2022-11-02T12:20:52.223Z,26.66
2022-11-02T12:23:53.441Z,26.55
2022-11-02T12:26:51.684Z,26.39
2022-11-02T12:29:55.234Z,26.19
2022-11-02T12:32:52.573Z,26.00
2022-11-02T12:35:57.569Z,25.48
2022-11-02T12:38:55.967Z,25.57
2022-11-02T12:41:56.796Z,25.38
2022-11-02T12:44:55.093Z,25.17
2022-11-02T12:47:50.615Z,25.11
2022-11-02T12:50:50.358Z,24.93
2022-11-02T12:53:43.569Z,24.93
2022-11-02T12:56:33.178Z,24.86
2022-11-02T12:59:23.049Z,24.84
2022-11-02T13:02:14.779Z,24.65
2022-11-02T13:05:05.294Z,24.71
2022-11-02T13:07:54.602Z,24.56
2022-11-02T13:10:43.148Z,24.37
2022-11-02T13:13:32.203Z,24.37
2022-11-02T13:16:17.740Z,24.24
2022-11-02T13:19:04.308Z,24.19
2022-11-02T13:21:54.002Z,24.15
2022-11-02T13:24:43.427Z,24.11
2022-11-02T13:27:36.450Z,24.09
2022-11-02T13:30:21.095Z,24.03
2022-11-02T13:33:12.328Z,23.82
2022-11-02T13:35:56.788Z,23.68
2022-11-02T13:38:44.107Z,23.58
2022-11-02T13:41:41.401Z,23.54
2022-11-02T13:44:59.679Z,23.38
2022-11-02T13:48:02.948Z,23.31
2022-11-02T13:50:51.822Z,23.19
2022-11-02T13:53:39.681Z,23.19
2022-11-02T13:56:25.625Z,23.04
2022-11-02T13:59:10.511Z,22.93
2022-11-02T14:01:56.368Z,22.95
2022-11-02T14:04:40.603Z,22.85
2022-11-02T14:07:30.447Z,22.75
2022-11-02T14:10:19.193Z,22.62
2022-11-02T14:13:02.479Z,22.50
2022-11-02T14:15:45.753Z,22.43
2022-11-02T14:18:31.993Z,22.39
2022-11-02T14:21:43.481Z,22.24
2022-11-02T14:25:09.133Z,22.12
2022-11-02T14:27:55.712Z,21.96
2022-11-02T14:30:45.707Z,21.92
2022-11-02T14:33:52.700Z,21.80
2022-11-02T14:36:50.302Z,21.67
2022-11-02T14:39:44.761Z,21.64
2022-11-02T14:42:43.109Z,21.51
2022-11-02T14:45:42.859Z,21.36
2022-11-02T14:48:30.859Z,21.28
2022-11-02T14:51:19.557Z,21.17
2022-11-02T14:54:07.460Z,20.99
2022-11-02T14:56:54.756Z,20.90
2022-11-02T14:59:41.018Z,20.76
2022-11-02T15:02:31.281Z,20.66
2022-11-02T15:05:24.562Z,20.60
2022-11-02T15:08:17.446Z,20.50
2022-11-02T15:11:00.465Z,20.38
2022-11-02T15:13:49.497Z,20.24
2022-11-02T15:16:42.618Z,20.12
2022-11-02T15:19:46.571Z,20.11
2022-11-02T15:22:39.707Z,19.97
2022-11-02T15:25:27.745Z,19.75
2022-11-02T15:28:15.512Z,19.72
2022-11-02T15:31:03.105Z,19.61
2022-11-02T15:33:49.935Z,19.50
2022-11-02T15:36:38.295Z,19.38
2022-11-02T15:39:22.907Z,19.16
2022-11-02T15:42:15.054Z,18.99
2022-11-02T15:45:33.688Z,18.99
2022-11-02T15:48:31.252Z,18.94
2022-11-02T15:51:21.992Z,18.88
2022-11-02T15:54:21.405Z,18.80
2022-11-02T15:57:14.654Z,18.70
2022-11-02T16:03:05.311Z,18.58
2022-11-02T16:05:51.486Z,18.59
2022-11-02T16:08:38.769Z,18.55
2022-11-02T16:11:23.334Z,18.49
2022-11-02T16:14:17.981Z,18.48
2022-11-02T16:17:01.288Z,18.43
2022-11-02T16:19:44.609Z,18.40
2022-11-02T16:22:28.458Z,18.29
2022-11-02T16:25:18.468Z,18.31
2022-11-02T16:28:18.032Z,18.25
2022-11-02T16:31:15.619Z,18.28
2022-11-02T16:34:01.279Z,18.18
2022-11-02T16:36:44.821Z,18.12
2022-11-02T16:39:32.079Z,18.09
2022-11-02T16:42:19.173Z,18.13
2022-11-02T16:45:05.196Z,18.02
2022-11-02T16:47:48.660Z,17.97
2022-11-02T16:50:32.393Z,17.98
2022-11-02T16:53:29.271Z,17.95
2022-11-02T16:56:27.713Z,17.76
2022-11-02T16:59:16.235Z,17.81
2022-11-02T17:02:03.019Z,17.76
2022-11-02T17:04:48.849Z,17.75
2022-11-02T17:07:34.855Z,17.73
2022-11-02T17:10:37.593Z,17.67
2022-11-02T17:13:22.206Z,17.66
2022-11-02T17:16:07.800Z,17.63
2022-11-02T17:18:52.617Z,17.51
2022-11-02T17:21:35.714Z,17.56
2022-11-02T17:24:35.833Z,17.55
2022-11-02T17:27:25.824Z,17.47
2022-11-02T17:30:46.614Z,17.52
2022-11-02T17:33:32.933Z,17.40
2022-11-02T17:36:18.493Z,17.34
2022-11-02T17:39:06.121Z,17.30
2022-11-02T17:42:11.955Z,17.27
2022-11-02T17:44:57.581Z,17.29
2022-11-02T17:47:41.233Z,17.12
2022-11-02T17:50:24.570Z,17.08
2022-11-02T17:53:14.205Z,17.00
2022-11-02T17:55:57.646Z,16.87
2022-11-02T17:58:41.595Z,16.80
2022-11-02T18:01:25.283Z,16.74
2022-11-02T18:04:08.633Z,16.54
2022-11-02T18:06:52.094Z,16.44
2022-11-02T18:09:36.653Z,16.29
2022-11-02T18:12:23.131Z,16.17
2022-11-02T18:15:07.455Z,16.01
2022-11-02T18:17:54.115Z,15.86
2022-11-02T18:20:41.594Z,15.85
2022-11-02T18:23:25.405Z,15.75
2022-11-02T18:26:12.395Z,15.68
2022-11-02T18:28:55.581Z,15.57
2022-11-02T18:31:38.916Z,15.52
2022-11-02T18:34:22.726Z,15.38
2022-11-02T18:37:07.044Z,15.42
2022-11-02T18:39:51.462Z,15.26
2022-11-02T18:42:38.869Z,15.24
2022-11-02T18:45:22.414Z,15.10
2022-11-02T18:48:09.025Z,15.05
2022-11-02T18:50:55.646Z,14.91
2022-11-02T18:53:38.982Z,15.02
2022-11-02T18:56:23.859Z,14.98
2022-11-02T18:59:10.191Z,14.93
2022-11-02T19:01:54.027Z,14.86
2022-11-02T19:04:37.416Z,14.92
2022-11-02T19:07:38.128Z,14.80
2022-11-02T19:10:21.321Z,14.73
2022-11-02T19:13:04.996Z,14.72
2022-11-02T19:15:53.263Z,14.58
2022-11-02T19:18:37.034Z,14.59
2022-11-02T19:21:20.202Z,14.40
2022-11-02T19:24:06.866Z,14.40
2022-11-02T19:26:52.127Z,14.16
2022-11-02T19:29:35.286Z,14.13
2022-11-02T19:32:22.461Z,14.27
2022-11-02T19:35:08.414Z,14.18
2022-11-02T19:37:51.530Z,14.32
2022-11-02T19:40:35.094Z,14.26
2022-11-02T19:43:18.291Z,14.29
2022-11-02T19:46:02.430Z,14.24
2022-11-02T19:48:47.748Z,14.10
2022-11-02T19:51:32.111Z,14.14
2022-11-02T19:54:15.792Z,14.00
2022-11-02T19:57:01.228Z,13.91
2022-11-02T19:59:47.491Z,13.99
2022-11-02T20:02:30.830Z,14.06
2022-11-02T20:05:15.605Z,14.32
2022-11-02T20:08:01.138Z,14.44
2022-11-02T20:10:47.354Z,14.67
2022-11-02T20:13:30.985Z,14.78
2022-11-02T20:16:18.866Z,14.82
2022-11-02T20:19:02.484Z,15.06
2022-11-02T20:21:47.143Z,15.00
2022-11-02T20:24:30.513Z,14.86
2022-11-02T20:27:14.075Z,14.76
2022-11-02T20:29:57.287Z,14.73
2022-11-02T20:32:40.536Z,14.66
2022-11-02T20:35:32.938Z,14.54
2022-11-02T20:38:19.044Z,14.41
2022-11-02T20:41:08.015Z,14.34
2022-11-02T20:43:52.641Z,14.16
2022-11-02T20:46:41.210Z,14.06
2022-11-02T20:52:31.256Z,14.05
2022-11-02T20:55:16.083Z,13.94
2022-11-02T20:58:02.023Z,13.89
2022-11-02T21:00:50.723Z,14.00
2022-11-02T21:03:35.658Z,13.98
2022-11-02T21:06:20.527Z,13.81
2022-11-02T21:09:09.212Z,13.85
2022-11-02T21:12:13.744Z,13.82
2022-11-02T21:14:57.174Z,13.75
2022-11-02T21:17:40.344Z,13.65
2022-11-02T21:20:39.214Z,13.56
2022-11-02T21:23:22.456Z,13.51
2022-11-02T21:26:07.594Z,13.34
2022-11-02T21:28:54.725Z,13.38
2022-11-02T21:31:38.071Z,13.33
2022-11-02T21:34:22.596Z,13.37
2022-11-02T21:37:07.096Z,13.39
2022-11-02T21:39:50.618Z,13.35
2022-11-02T21:42:33.727Z,13.41
2022-11-02T21:45:18.565Z,13.51
2022-11-02T21:48:02.945Z,13.59
2022-11-02T21:50:46.186Z,13.63
2022-11-02T21:53:29.771Z,13.68
2022-11-02T21:56:14.642Z,13.69
2022-11-02T21:58:57.853Z,13.74
2022-11-02T22:01:47.381Z,13.65
2022-11-02T22:04:32.124Z,13.73
2022-11-02T22:07:15.444Z,13.77
2022-11-02T22:09:58.681Z,13.72
2022-11-02T22:12:59.223Z,13.76
2022-11-02T22:15:42.342Z,13.78
2022-11-02T22:18:27.025Z,13.73
2022-11-02T22:21:10.486Z,13.48
2022-11-02T22:23:53.721Z,13.51
2022-11-02T22:26:38.940Z,13.61
2022-11-02T22:29:23.637Z,13.53
2022-11-02T22:32:07.447Z,13.61
2022-11-02T22:34:52.001Z,13.66
2022-11-02T22:37:53.237Z,13.65
2022-11-02T22:40:36.779Z,13.62
2022-11-02T22:43:20.000Z,13.56
2022-11-02T22:46:05.961Z,13.61
2022-11-02T22:48:51.742Z,13.58
2022-11-02T22:51:38.106Z,13.50
2022-11-02T22:54:21.421Z,13.41
2022-11-02T22:57:04.576Z,13.38
2022-11-02T22:59:47.651Z,13.31
2022-11-02T23:02:30.815Z,13.07
2022-11-02T23:05:14.042Z,13.11
2022-11-02T23:07:59.043Z,13.04
2022-11-02T23:10:59.908Z,12.99
2022-11-02T23:13:43.781Z,12.95
2022-11-02T23:16:28.892Z,12.71
2022-11-02T23:19:31.806Z,12.74
2022-11-02T23:22:32.654Z,12.77
2022-11-02T23:25:19.071Z,12.74
2022-11-02T23:28:20.123Z,12.72
2022-11-02T23:31:20.583Z,12.67
2022-11-02T23:34:03.757Z,12.62
2022-11-02T23:36:45.909Z,12.56
2022-11-02T23:39:46.314Z,12.49
2022-11-02T23:42:31.325Z,12.44
2022-11-02T23:45:14.792Z,12.45
2022-11-02T23:48:04.158Z,12.34
2022-11-02T23:51:04.754Z,12.37
2022-11-02T23:54:05.482Z,12.26
2022-11-02T23:56:50.169Z,12.29
2022-11-02T23:59:42.257Z,12.22
